Terminal Aerodrome Forecast
Issued by NWS

Home | Current Version | Previous Version | Text Only | Print | Product List | Glossary On
Versions: 1 2 3 4 5 6 7 8 9 10 11 12 13 14 15 16 17 18 19 20
000
FTUS42 KGSP 270805 AAA
TAFGMU
TAF AMD
KGMU 270805Z 2708/2806 01008KT P6SM VCSH OVC030
     FM271000 36008KT 5SM -SHRA BR OVC020
     FM271300 01010KT P6SM OVC020
     FM271900 01009KT P6SM BKN045
     FM272100 36005KT P6SM BKN060=

USA.gov is the U.S. government's official web portal to all federal, state and local government web resources and services.